Whitecourt, Canada
Current Conditions -  °F | °C
As of 6:00 AM on Thursday 30 Oct 2014 (Local Time) from CYZU Reporting Station
Moderate Fog Moderate Fog  
Wind Chill: 21°   Ceiling: 400
Heat Index: 30°   Visibility: 0.5mi
Dew Point: 30°   Wind: 12mph
Humidity: 100%   Direction: 100°E
Pressure: 30.15"   Gusts: NA
Location:  54.13°N, 115.67°W
Report Text: CYZU 301200Z 10010KT 1/2SM FG VV004 M01/M01 A3015 RMK FG8 SLP246
Loading
Personal Weather Stations






























Interactive Weather Map
Tropical Storm Tracking
New forecast layout! Learn more

10-Day Weather Forecast

Advertisements
Track Severe Weather on mobile